createdAt,value
2018-03-30T00:00:43.694Z,0
2018-03-30T00:01:44.406Z,0
2018-03-30T00:02:43.855Z,0
2018-03-30T00:03:43.223Z,0
2018-03-30T00:04:43.965Z,0
2018-03-30T00:05:43.347Z,0
2018-03-30T00:06:43.958Z,0
2018-03-30T00:07:43.363Z,0
2018-03-30T00:08:44.135Z,0
2018-03-30T00:09:44.026Z,0
2018-03-30T00:10:43.763Z,0
2018-03-30T00:11:43.652Z,0
2018-03-30T00:12:44.387Z,0
2018-03-30T00:13:44.041Z,0
2018-03-30T00:14:44.128Z,0
2018-03-30T00:15:44.256Z,0
2018-03-30T00:16:44.364Z,0
2018-03-30T00:17:43.983Z,0
2018-03-30T00:18:43.714Z,0
2018-03-30T00:19:44.766Z,0
2018-03-30T00:20:44.498Z,0
2018-03-30T00:21:44.899Z,0
2018-03-30T00:22:46.032Z,0
2018-03-30T00:23:44.706Z,0
2018-03-30T00:24:44.139Z,0
2018-03-30T00:25:45.067Z,0
2018-03-30T00:26:44.101Z,0
2018-03-30T00:27:44.020Z,0
2018-03-30T00:28:44.612Z,0
2018-03-30T00:29:44.367Z,0
2018-03-30T00:30:44.082Z,0
2018-03-30T00:31:44.438Z,0
2018-03-30T00:32:44.840Z,0
2018-03-30T00:33:45.263Z,0
2018-03-30T00:34:45.249Z,0
2018-03-30T00:35:44.740Z,0
2018-03-30T00:36:44.832Z,0
2018-03-30T00:37:45.152Z,0
2018-03-30T00:38:44.866Z,0
2018-03-30T00:39:44.478Z,0
2018-03-30T00:40:45.740Z,0
2018-03-30T00:41:45.952Z,0
2018-03-30T00:42:44.882Z,0
2018-03-30T00:43:45.329Z,0
2018-03-30T00:44:46.266Z,0
2018-03-30T00:45:45.981Z,0
2018-03-30T00:46:45.430Z,0
2018-03-30T00:47:46.045Z,0
2018-03-30T00:48:46.017Z,0
2018-03-30T00:49:46.056Z,0
2018-03-30T00:50:46.092Z,0
2018-03-30T00:51:46.030Z,0
2018-03-30T00:52:46.088Z,0
2018-03-30T00:53:46.133Z,0
2018-03-30T00:54:46.249Z,0
2018-03-30T00:55:46.336Z,0
2018-03-30T00:56:46.410Z,0
2018-03-30T00:57:46.507Z,0
2018-03-30T00:58:46.607Z,0
2018-03-30T00:59:46.122Z,0
2018-03-30T01:00:46.255Z,0
2018-03-30T01:01:45.989Z,0
2018-03-30T01:02:46.953Z,0
2018-03-30T01:03:46.755Z,0
2018-03-30T01:04:46.735Z,0
2018-03-30T01:05:47.340Z,0
2018-03-30T01:06:47.412Z,0
2018-03-30T01:07:46.438Z,0
2018-03-30T01:08:46.860Z,0
2018-03-30T01:09:47.105Z,0
2018-03-30T01:10:46.772Z,0
2018-03-30T01:11:47.260Z,0
2018-03-30T01:12:46.564Z,0
2018-03-30T01:13:47.259Z,0
2018-03-30T01:14:47.556Z,0
2018-03-30T01:15:47.513Z,0
2018-03-30T01:16:47.321Z,0
2018-03-30T01:17:47.805Z,0
2018-03-30T01:18:47.199Z,0
2018-03-30T01:19:46.955Z,0
2018-03-30T01:20:46.978Z,0
2018-03-30T01:21:47.763Z,0
2018-03-30T01:22:47.664Z,0
2018-03-30T01:23:47.390Z,0
2018-03-30T01:24:46.980Z,0
2018-03-30T01:25:47.364Z,0
2018-03-30T01:26:48.437Z,0
2018-03-30T01:27:48.206Z,0
2018-03-30T01:28:48.533Z,0
2018-03-30T01:29:48.341Z,0
2018-03-30T01:30:48.282Z,0
2018-03-30T01:31:48.069Z,0
2018-03-30T01:32:48.421Z,0
2018-03-30T01:33:48.239Z,0
2018-03-30T01:34:48.659Z,0
2018-03-30T01:35:50.077Z,0
2018-03-30T01:36:48.274Z,0
2018-03-30T01:37:48.167Z,0
2018-03-30T01:38:48.503Z,0
2018-03-30T01:39:48.563Z,0
2018-03-30T01:40:48.227Z,0
2018-03-30T01:41:48.785Z,0
2018-03-30T01:42:48.386Z,0
2018-03-30T01:43:48.291Z,0
2018-03-30T01:44:48.267Z,0
2018-03-30T01:45:48.679Z,0
2018-03-30T01:46:48.487Z,0
2018-03-30T01:47:48.743Z,0
2018-03-30T01:48:48.318Z,0
2018-03-30T01:49:49.821Z,0
2018-03-30T01:50:50.070Z,0
2018-03-30T01:51:48.831Z,0
2018-03-30T01:52:49.085Z,0
2018-03-30T01:53:48.846Z,0
2018-03-30T01:54:48.403Z,0
2018-03-30T01:55:48.446Z,0
2018-03-30T01:56:48.750Z,0
2018-03-30T01:57:48.861Z,0
2018-03-30T01:58:48.709Z,0
2018-03-30T01:59:48.885Z,0
2018-03-30T02:00:48.707Z,0
2018-03-30T02:01:48.587Z,0
2018-03-30T02:02:48.989Z,0
2018-03-30T02:03:49.691Z,0
2018-03-30T02:04:49.693Z,0
2018-03-30T02:05:48.876Z,0
2018-03-30T02:06:49.691Z,0
2018-03-30T02:07:50.135Z,0
2018-03-30T02:08:50.854Z,0
2018-03-30T02:09:50.240Z,0
2018-03-30T02:10:51.204Z,0
2018-03-30T02:11:50.746Z,0
2018-03-30T02:12:51.797Z,0
2018-03-30T02:13:51.805Z,0
2018-03-30T02:14:51.332Z,0
2018-03-30T02:15:51.952Z,0
2018-03-30T02:16:52.287Z,0
2018-03-30T02:17:52.697Z,0
2018-03-30T02:18:52.721Z,0
2018-03-30T02:19:52.385Z,0
2018-03-30T02:20:52.680Z,0
2018-03-30T02:21:52.902Z,0
2018-03-30T02:22:53.222Z,0
2018-03-30T02:23:53.210Z,0
2018-03-30T02:24:52.571Z,0
2018-03-30T02:25:52.983Z,0
2018-03-30T02:26:53.075Z,0
2018-03-30T02:27:53.258Z,0
2018-03-30T02:28:53.223Z,0
2018-03-30T02:29:53.804Z,0
2018-03-30T02:30:53.528Z,0
2018-03-30T02:31:53.400Z,0
2018-03-30T02:32:53.486Z,0
2018-03-30T02:33:53.388Z,0
2018-03-30T02:34:53.470Z,0
2018-03-30T02:35:53.498Z,0
2018-03-30T02:36:53.717Z,0
2018-03-30T02:37:53.768Z,0
2018-03-30T02:38:54.028Z,0
2018-03-30T02:39:54.416Z,0
2018-03-30T02:40:54.834Z,0
2018-03-30T02:41:54.292Z,0
2018-03-30T02:42:54.808Z,0
2018-03-30T02:43:55.146Z,0
2018-03-30T02:44:54.960Z,0
2018-03-30T02:45:54.849Z,0
2018-03-30T02:46:55.226Z,0
2018-03-30T02:47:54.848Z,0
2018-03-30T02:48:55.067Z,0
2018-03-30T02:49:55.500Z,0
2018-03-30T02:50:54.840Z,0
2018-03-30T02:51:54.983Z,0
2018-03-30T02:52:56.659Z,0
2018-03-30T02:53:56.189Z,0
2018-03-30T02:54:55.529Z,0
2018-03-30T02:55:56.401Z,0
2018-03-30T02:56:56.043Z,0
2018-03-30T02:57:56.230Z,0
2018-03-30T02:58:55.912Z,0
2018-03-30T02:59:56.726Z,0
2018-03-30T03:00:56.242Z,0
2018-03-30T03:01:56.504Z,0
2018-03-30T03:02:56.554Z,0
2018-03-30T03:03:55.994Z,0
2018-03-30T03:04:57.090Z,0
2018-03-30T03:05:56.203Z,0
2018-03-30T03:06:56.512Z,0
2018-03-30T03:07:56.866Z,0
2018-03-30T03:08:57.209Z,0
2018-03-30T03:09:57.678Z,0
2018-03-30T03:10:58.122Z,0
2018-03-30T03:11:57.600Z,0
2018-03-30T03:12:57.077Z,0
2018-03-30T03:13:56.828Z,0
2018-03-30T03:14:57.009Z,0
2018-03-30T03:15:56.598Z,0
2018-03-30T03:16:56.907Z,0
2018-03-30T03:17:56.677Z,0
2018-03-30T03:18:57.487Z,0
2018-03-30T03:19:57.468Z,0
2018-03-30T03:20:57.568Z,0
2018-03-30T03:21:56.875Z,0
2018-03-30T03:22:57.327Z,0
2018-03-30T03:23:56.972Z,0
2018-03-30T03:24:57.425Z,0
2018-03-30T03:25:57.585Z,0
2018-03-30T03:26:57.571Z,0
2018-03-30T03:27:57.172Z,0
2018-03-30T03:28:57.553Z,0
2018-03-30T03:29:58.265Z,0
2018-03-30T03:30:58.629Z,0
2018-03-30T03:31:57.955Z,0
2018-03-30T03:32:58.350Z,0
2018-03-30T03:33:58.970Z,0
2018-03-30T03:34:59.612Z,0
2018-03-30T03:35:59.399Z,0
2018-03-30T03:36:59.638Z,0
2018-03-30T03:37:59.875Z,0
2018-03-30T03:39:00.287Z,0
2018-03-30T03:39:59.789Z,0
2018-03-30T03:41:00.070Z,0
2018-03-30T03:42:00.175Z,0
2018-03-30T03:43:00.197Z,0
2018-03-30T03:43:59.767Z,0
2018-03-30T03:45:00.841Z,0
2018-03-30T03:46:00.450Z,0
2018-03-30T03:47:00.581Z,0
2018-03-30T03:48:00.500Z,0
2018-03-30T03:49:00.415Z,0
2018-03-30T03:50:01.137Z,0
2018-03-30T03:51:00.892Z,0
2018-03-30T03:52:00.796Z,0
2018-03-30T03:53:01.008Z,0
2018-03-30T03:54:01.149Z,0
2018-03-30T03:55:00.740Z,0
2018-03-30T03:56:01.456Z,0
2018-03-30T03:57:01.211Z,0
2018-03-30T03:58:01.107Z,0
2018-03-30T03:59:01.589Z,0
2018-03-30T04:00:14.734Z,0
2018-03-30T04:01:00.945Z,0
2018-03-30T04:02:00.653Z,0
2018-03-30T04:03:01.281Z,0
2018-03-30T04:04:01.451Z,0
2018-03-30T04:05:01.034Z,0
2018-03-30T04:06:01.279Z,0
2018-03-30T04:07:02.185Z,0
2018-03-30T04:08:02.034Z,0
2018-03-30T04:09:02.294Z,0
2018-03-30T04:10:01.741Z,0
2018-03-30T04:11:02.092Z,0
2018-03-30T04:12:02.321Z,0
2018-03-30T04:13:02.596Z,0
2018-03-30T04:14:02.833Z,0
2018-03-30T04:15:03.307Z,0
2018-03-30T04:16:03.462Z,4
2018-03-30T04:17:03.816Z,4
2018-03-30T04:18:04.161Z,0
2018-03-30T04:19:04.377Z,4
2018-03-30T04:20:04.406Z,4
2018-03-30T04:21:04.173Z,0
2018-03-30T04:22:04.317Z,4
2018-03-30T04:23:04.543Z,4
2018-03-30T04:24:05.270Z,4
2018-03-30T04:25:05.305Z,4
2018-03-30T04:26:05.281Z,8
2018-03-30T04:27:05.493Z,8
2018-03-30T04:28:05.995Z,8
2018-03-30T04:29:05.781Z,12
2018-03-30T04:30:06.005Z,12
2018-03-30T04:31:06.316Z,12
2018-03-30T04:32:06.050Z,16
2018-03-30T04:33:06.538Z,16
2018-03-30T04:34:06.161Z,20
2018-03-30T04:35:06.194Z,24
2018-03-30T04:36:06.470Z,28
2018-03-30T04:37:06.993Z,28
2018-03-30T04:38:06.513Z,32
2018-03-30T04:39:06.563Z,36
2018-03-30T04:40:06.556Z,40
2018-03-30T04:41:07.127Z,44
2018-03-30T04:42:07.014Z,48
2018-03-30T04:43:07.294Z,56
2018-03-30T04:44:07.307Z,60
2018-03-30T04:45:07.677Z,68
2018-03-30T04:46:07.602Z,76
2018-03-30T04:47:07.680Z,80
2018-03-30T04:48:07.775Z,92
2018-03-30T04:49:08.230Z,100
2018-03-30T04:50:08.205Z,112
2018-03-30T04:51:07.996Z,124
2018-03-30T04:52:08.178Z,140
2018-03-30T04:53:07.710Z,152
2018-03-30T04:54:07.983Z,168
2018-03-30T04:55:08.597Z,184
2018-03-30T04:56:08.703Z,208
2018-03-30T04:57:08.459Z,228
2018-03-30T04:58:08.646Z,244
2018-03-30T04:59:08.400Z,264
2018-03-30T05:00:21.491Z,288
2018-03-30T05:01:08.781Z,308
2018-03-30T05:02:08.407Z,328
2018-03-30T05:03:08.893Z,356
2018-03-30T05:04:08.878Z,392
2018-03-30T05:05:09.380Z,416
2018-03-30T05:06:09.106Z,444
2018-03-30T05:07:09.455Z,456
2018-03-30T05:08:08.777Z,472
2018-03-30T05:09:09.586Z,492
2018-03-30T05:10:08.777Z,508
2018-03-30T05:11:09.998Z,536
2018-03-30T05:12:09.007Z,560
2018-03-30T05:13:09.516Z,592
2018-03-30T05:14:09.571Z,628
2018-03-30T05:15:10.012Z,668
2018-03-30T05:16:09.998Z,720
2018-03-30T05:17:09.754Z,764
2018-03-30T05:18:09.829Z,816
2018-03-30T05:19:10.753Z,868
2018-03-30T05:20:10.894Z,932
2018-03-30T05:21:10.670Z,1012
2018-03-30T05:22:11.019Z,1088
2018-03-30T05:23:10.763Z,1176
2018-03-30T05:24:10.943Z,1228
2018-03-30T05:25:11.071Z,1268
2018-03-30T05:26:11.117Z,1324
2018-03-30T05:27:10.604Z,1356
2018-03-30T05:28:11.098Z,1392
2018-03-30T05:29:11.307Z,1440
2018-03-30T05:30:10.593Z,1480
2018-03-30T05:31:10.673Z,1544
2018-03-30T05:32:11.580Z,1636
2018-03-30T05:33:12.284Z,1696
2018-03-30T05:34:11.643Z,1744
2018-03-30T05:35:12.299Z,1812
2018-03-30T05:36:12.227Z,1820
2018-03-30T05:37:12.062Z,1824
2018-03-30T05:38:11.421Z,1844
2018-03-30T05:39:11.830Z,1896
2018-03-30T05:40:12.210Z,1936
2018-03-30T05:41:12.149Z,1916
2018-03-30T05:42:12.336Z,1976
2018-03-30T05:43:12.578Z,2148
2018-03-30T05:44:12.414Z,2328
2018-03-30T05:45:12.371Z,2400
2018-03-30T05:46:12.473Z,2520
2018-03-30T05:47:11.821Z,2644
2018-03-30T05:48:12.245Z,2768
2018-03-30T05:49:12.511Z,2836
2018-03-30T05:50:12.218Z,2984
2018-03-30T05:51:12.254Z,3428
2018-03-30T05:52:12.401Z,3480
2018-03-30T05:53:13.400Z,3652
2018-03-30T05:54:13.296Z,3924
2018-03-30T05:55:13.293Z,4084
2018-03-30T05:56:12.450Z,4156
2018-03-30T05:57:12.165Z,4368
2018-03-30T05:58:12.495Z,4664
2018-03-30T05:59:12.820Z,4764
2018-03-30T06:00:32.005Z,4760
2018-03-30T06:01:11.906Z,4732
2018-03-30T06:02:12.432Z,4868
2018-03-30T06:03:12.402Z,5116
2018-03-30T06:04:12.885Z,4952
2018-03-30T06:05:12.632Z,5056
2018-03-30T06:06:12.110Z,5388
2018-03-30T06:07:12.459Z,5344
2018-03-30T06:08:12.543Z,4952
2018-03-30T06:09:12.707Z,4628
2018-03-30T06:10:13.428Z,4356
2018-03-30T06:11:12.546Z,4344
2018-03-30T06:12:12.742Z,4412
2018-03-30T06:13:12.367Z,4412
2018-03-30T06:14:12.737Z,4324
2018-03-30T06:15:12.271Z,4564
2018-03-30T06:16:13.185Z,4624
2018-03-30T06:17:12.712Z,4516
2018-03-30T06:18:13.050Z,4456
2018-03-30T06:19:12.702Z,4372
2018-03-30T06:20:12.875Z,4256
2018-03-30T06:21:12.874Z,4204
2018-03-30T06:22:12.531Z,4164
2018-03-30T06:23:13.664Z,4172
2018-03-30T06:24:13.018Z,4236
2018-03-30T06:25:13.106Z,4312
2018-03-30T06:26:13.124Z,4404
2018-03-30T06:27:13.041Z,4504
2018-03-30T06:28:13.236Z,4528
2018-03-30T06:29:12.993Z,4512
2018-03-30T06:30:12.848Z,4528
2018-03-30T06:31:13.308Z,4532
2018-03-30T06:32:13.278Z,4636
2018-03-30T06:33:13.897Z,4844
2018-03-30T06:34:14.692Z,4816
2018-03-30T06:35:13.136Z,4988
2018-03-30T06:36:13.548Z,5192
2018-03-30T06:37:14.108Z,5344
2018-03-30T06:38:14.830Z,5340
2018-03-30T06:39:14.296Z,5240
2018-03-30T06:40:13.713Z,5228
2018-03-30T06:41:14.893Z,5532
2018-03-30T06:42:14.201Z,6112
2018-03-30T06:43:14.729Z,6388
2018-03-30T06:44:13.845Z,6488
2018-03-30T06:45:13.712Z,6380
2018-03-30T06:46:14.175Z,6524
2018-03-30T06:47:14.157Z,6380
2018-03-30T06:48:14.261Z,5856
2018-03-30T06:49:14.075Z,5792
2018-03-30T06:50:13.814Z,5896
2018-03-30T06:51:13.983Z,5856
2018-03-30T06:52:13.941Z,5720
2018-03-30T06:53:14.254Z,5928
2018-03-30T06:54:14.036Z,6444
2018-03-30T06:55:14.955Z,6556
2018-03-30T06:56:14.325Z,6740
2018-03-30T06:57:15.108Z,6872
2018-03-30T06:58:15.507Z,6832
2018-03-30T06:59:15.219Z,6940
2018-03-30T07:00:16.332Z,6944
2018-03-30T07:01:15.647Z,7068
2018-03-30T07:02:15.597Z,7864
2018-03-30T07:03:15.130Z,7760
2018-03-30T07:04:15.413Z,7452
2018-03-30T07:05:15.475Z,7040
2018-03-30T07:06:15.607Z,7180
2018-03-30T07:07:15.362Z,7424
2018-03-30T07:08:15.623Z,7780
2018-03-30T07:09:16.084Z,7984
2018-03-30T07:10:15.680Z,8532
2018-03-30T07:11:15.797Z,8732
2018-03-30T07:12:15.592Z,8960
2018-03-30T07:13:16.209Z,9236
2018-03-30T07:14:16.382Z,9724
2018-03-30T07:15:16.240Z,9952
2018-03-30T07:16:15.816Z,10076
2018-03-30T07:17:16.734Z,10228
2018-03-30T07:18:16.519Z,10356
2018-03-30T07:19:16.563Z,10384
2018-03-30T07:20:16.641Z,9780
2018-03-30T07:21:16.663Z,9036
2018-03-30T07:22:16.477Z,8708
2018-03-30T07:23:16.493Z,8276
2018-03-30T07:24:16.589Z,7756
2018-03-30T07:25:17.196Z,7572
2018-03-30T07:26:17.612Z,7160
2018-03-30T07:27:17.819Z,6568
2018-03-30T07:28:17.612Z,6228
2018-03-30T07:29:17.612Z,6096
2018-03-30T07:30:17.106Z,5924
2018-03-30T07:31:17.441Z,5892
2018-03-30T07:32:17.493Z,5832
2018-03-30T07:33:18.049Z,5852
2018-03-30T07:34:18.554Z,5900
2018-03-30T07:35:19.063Z,5996
2018-03-30T07:36:18.480Z,6012
2018-03-30T07:37:18.205Z,6196
2018-03-30T07:38:18.316Z,6300
2018-03-30T07:39:19.023Z,6484
2018-03-30T07:40:19.640Z,6600
2018-03-30T07:41:19.239Z,6908
2018-03-30T07:42:19.394Z,7452
2018-03-30T07:43:20.190Z,7816
2018-03-30T07:44:19.701Z,8300
2018-03-30T07:45:20.055Z,8164
2018-03-30T07:46:20.409Z,8240
2018-03-30T07:47:20.746Z,8072
2018-03-30T07:48:20.606Z,8636
2018-03-30T07:49:20.978Z,8892
2018-03-30T07:50:21.653Z,9076
2018-03-30T07:51:21.041Z,9168
2018-03-30T07:52:21.380Z,9308
2018-03-30T07:53:22.425Z,9500
2018-03-30T07:54:21.712Z,9744
2018-03-30T07:55:21.808Z,9888
2018-03-30T07:56:21.480Z,10040
2018-03-30T07:57:21.519Z,10076
2018-03-30T07:58:21.814Z,9992
2018-03-30T07:59:21.883Z,10092
2018-03-30T08:00:21.503Z,10308
2018-03-30T08:01:21.915Z,9556
2018-03-30T08:02:21.828Z,10376
2018-03-30T08:03:21.918Z,10416
2018-03-30T08:04:22.312Z,10516
2018-03-30T08:05:22.349Z,10744
2018-03-30T08:06:22.472Z,10992
2018-03-30T08:07:23.143Z,11160
2018-03-30T08:08:22.893Z,10852
2018-03-30T08:09:23.062Z,10604
2018-03-30T08:10:23.667Z,10336
2018-03-30T08:11:23.141Z,10300
2018-03-30T08:12:23.300Z,10220
2018-03-30T08:13:23.964Z,10252
2018-03-30T08:14:23.742Z,10344
2018-03-30T08:15:23.913Z,10208
2018-03-30T08:16:24.520Z,9872
2018-03-30T08:17:24.689Z,9712
2018-03-30T08:18:24.885Z,9536
2018-03-30T08:19:24.467Z,9388
2018-03-30T08:20:24.233Z,9672
2018-03-30T08:21:24.929Z,10192
2018-03-30T08:22:24.715Z,9984
2018-03-30T08:23:24.727Z,9776
2018-03-30T08:24:25.032Z,9572
2018-03-30T08:25:25.193Z,9228
2018-03-30T08:26:25.502Z,8956
2018-03-30T08:27:25.701Z,8704
2018-03-30T08:28:26.111Z,8292
2018-03-30T08:29:26.081Z,8256
2018-03-30T08:30:25.935Z,8340
2018-03-30T08:31:26.362Z,8220
2018-03-30T08:32:26.124Z,7980
2018-03-30T08:33:25.802Z,8096
2018-03-30T08:34:26.264Z,7980
2018-03-30T08:35:26.683Z,7772
2018-03-30T08:36:26.865Z,7576
2018-03-30T08:37:27.534Z,7512
2018-03-30T08:38:27.569Z,7516
2018-03-30T08:39:27.731Z,7504
2018-03-30T08:40:27.487Z,7504
2018-03-30T08:41:28.690Z,7520
2018-03-30T08:42:28.207Z,7552
2018-03-30T08:43:28.126Z,7596
2018-03-30T08:44:28.690Z,7716
2018-03-30T08:45:28.602Z,7824
2018-03-30T08:46:28.799Z,7880
2018-03-30T08:47:28.705Z,7936
2018-03-30T08:48:29.270Z,7840
2018-03-30T08:49:29.753Z,7780
2018-03-30T08:50:30.305Z,7764
2018-03-30T08:51:30.270Z,7708
2018-03-30T08:52:30.050Z,7744
2018-03-30T08:53:30.789Z,7772
2018-03-30T08:54:31.011Z,7700
2018-03-30T08:55:31.403Z,7800
2018-03-30T08:56:30.814Z,7764
2018-03-30T08:57:31.404Z,7812
2018-03-30T08:58:31.742Z,7848
2018-03-30T08:59:31.419Z,7840
2018-03-30T09:00:31.488Z,7788
2018-03-30T09:01:32.348Z,7736
2018-03-30T09:02:32.211Z,7692
2018-03-30T09:03:32.411Z,7628
2018-03-30T09:04:31.923Z,7664
2018-03-30T09:05:32.777Z,7840
2018-03-30T09:06:31.847Z,8000
2018-03-30T09:07:32.333Z,8152
2018-03-30T09:08:32.580Z,8284
2018-03-30T09:09:32.597Z,8424
2018-03-30T09:10:32.630Z,8520
2018-03-30T09:11:32.875Z,8604
2018-03-30T09:12:32.240Z,8804
2018-03-30T09:13:32.214Z,8812
2018-03-30T09:14:32.348Z,8872
2018-03-30T09:15:32.390Z,8936
2018-03-30T09:16:32.282Z,9040
2018-03-30T09:17:32.415Z,9040
2018-03-30T09:18:32.756Z,8924
2018-03-30T09:19:32.796Z,8920
2018-03-30T09:20:32.921Z,8908
2018-03-30T09:21:33.685Z,8976
2018-03-30T09:22:33.160Z,9020
2018-03-30T09:23:33.919Z,8992
2018-03-30T09:24:32.908Z,9028
2018-03-30T09:25:33.475Z,9244
2018-03-30T09:26:34.160Z,9344
2018-03-30T09:27:33.675Z,9508
2018-03-30T09:28:33.885Z,9436
2018-03-30T09:29:33.720Z,9840
2018-03-30T09:30:34.451Z,10432
2018-03-30T09:31:34.695Z,11628
2018-03-30T09:32:34.679Z,13196
2018-03-30T09:33:34.506Z,14460
2018-03-30T09:34:34.315Z,16000
2018-03-30T09:35:34.624Z,20096
2018-03-30T09:36:34.594Z,24544
2018-03-30T09:37:34.536Z,27776
2018-03-30T09:38:34.936Z,26688
2018-03-30T09:39:34.835Z,26144
2018-03-30T09:40:35.646Z,24832
2018-03-30T09:41:35.224Z,26048
2018-03-30T09:42:35.814Z,29344
2018-03-30T09:43:36.223Z,28768
2018-03-30T09:44:36.630Z,29696
2018-03-30T09:45:37.035Z,30880
2018-03-30T09:46:37.464Z,34592
2018-03-30T09:47:37.638Z,36800
2018-03-30T09:48:38.689Z,38944
2018-03-30T09:49:39.218Z,33504
2018-03-30T09:50:39.175Z,32288
2018-03-30T09:51:38.762Z,31936
2018-03-30T09:52:39.503Z,34272
2018-03-30T09:53:38.798Z,37504
2018-03-30T09:54:38.773Z,48608
2018-03-30T09:55:38.856Z,53888
2018-03-30T09:56:39.365Z,50112
2018-03-30T09:57:38.868Z,48128
2018-03-30T09:58:39.499Z,44192
2018-03-30T09:59:39.333Z,46688
2018-03-30T10:00:38.955Z,46624
2018-03-30T10:01:40.023Z,49728
2018-03-30T10:02:39.537Z,49984
2018-03-30T10:03:40.185Z,47712
2018-03-30T10:04:40.046Z,45792
2018-03-30T10:05:40.817Z,47936
2018-03-30T10:06:40.826Z,50816
2018-03-30T10:07:40.627Z,52320
2018-03-30T10:08:41.310Z,52416
2018-03-30T10:09:41.400Z,54336
2018-03-30T10:10:41.143Z,53376
2018-03-30T10:11:41.149Z,51872
2018-03-30T10:12:41.458Z,51136
2018-03-30T10:13:41.489Z,50848
2018-03-30T10:14:41.874Z,52480
2018-03-30T10:15:41.280Z,52256
2018-03-30T10:16:41.707Z,54752
2018-03-30T10:17:41.732Z,54688
2018-03-30T10:18:41.528Z,54592
2018-03-30T10:19:42.222Z,55264
2018-03-30T10:20:42.005Z,57984
2018-03-30T10:21:42.740Z,61984
2018-03-30T10:22:42.703Z,62464
2018-03-30T10:23:42.830Z,61824
2018-03-30T10:24:43.240Z,62112
2018-03-30T10:25:43.429Z,63840
2018-03-30T10:26:43.676Z,63136
2018-03-30T10:27:43.884Z,64384
2018-03-30T10:28:44.276Z,65248
2018-03-30T10:29:44.317Z,64960
2018-03-30T10:30:44.741Z,65024
2018-03-30T10:31:44.942Z,68064
2018-03-30T10:32:45.005Z,69568
2018-03-30T10:33:45.987Z,69824
2018-03-30T10:34:45.766Z,69024
2018-03-30T10:35:45.924Z,67424
2018-03-30T10:36:45.768Z,65536
2018-03-30T10:37:45.949Z,64416
2018-03-30T10:38:45.978Z,65568
2018-03-30T10:39:46.428Z,64832
2018-03-30T10:40:46.142Z,66464
2018-03-30T10:41:46.604Z,69568
2018-03-30T10:42:46.081Z,70272
2018-03-30T10:43:46.115Z,71360
2018-03-30T10:44:46.651Z,72224
2018-03-30T10:45:46.469Z,71072
2018-03-30T10:46:46.936Z,66528
2018-03-30T10:47:47.332Z,52928
2018-03-30T10:48:47.560Z,21024
2018-03-30T10:49:47.869Z,10452
2018-03-30T10:50:48.056Z,9188
2018-03-30T10:51:48.098Z,8584
2018-03-30T10:52:48.113Z,8236
2018-03-30T10:53:48.173Z,8108
2018-03-30T10:54:48.055Z,7872
2018-03-30T10:55:48.330Z,7656
2018-03-30T10:56:48.733Z,7396
2018-03-30T10:57:48.754Z,7192
2018-03-30T10:58:48.533Z,7024
2018-03-30T10:59:48.292Z,6928
2018-03-30T11:00:49.416Z,6864
2018-03-30T11:01:50.418Z,6780
2018-03-30T11:02:49.700Z,6664
2018-03-30T11:03:49.143Z,6560
2018-03-30T11:04:49.850Z,6500
2018-03-30T11:05:50.921Z,6460
2018-03-30T11:06:49.564Z,6448
2018-03-30T11:07:50.082Z,6440
2018-03-30T11:08:49.350Z,6496
2018-03-30T11:09:50.952Z,6516
2018-03-30T11:10:51.512Z,6496
2018-03-30T11:11:51.002Z,6396
2018-03-30T11:12:50.899Z,6372
2018-03-30T11:13:51.600Z,6284
2018-03-30T11:14:50.581Z,6128
2018-03-30T11:15:50.463Z,5980
2018-03-30T11:16:50.786Z,5844
2018-03-30T11:17:51.170Z,5636
2018-03-30T11:18:54.854Z,5524
2018-03-30T11:19:51.968Z,5556
2018-03-30T11:20:51.091Z,5536
2018-03-30T11:21:50.948Z,5520
2018-03-30T11:22:50.707Z,5464
2018-03-30T11:23:51.623Z,5388
2018-03-30T11:24:50.726Z,5312
2018-03-30T11:25:51.204Z,5244
2018-03-30T11:26:50.726Z,5252
2018-03-30T11:27:50.862Z,5336
2018-03-30T11:28:53.173Z,5320
2018-03-30T11:29:51.300Z,5272
2018-03-30T11:30:51.275Z,5288
2018-03-30T11:31:51.305Z,5232
2018-03-30T11:32:51.291Z,5212
2018-03-30T11:33:51.529Z,5136
2018-03-30T11:34:51.696Z,5136
2018-03-30T11:35:52.532Z,5140
2018-03-30T11:36:51.947Z,5160
2018-03-30T11:37:52.927Z,5216
2018-03-30T11:38:51.223Z,5204
2018-03-30T11:39:51.823Z,5196
2018-03-30T11:40:51.810Z,5048
2018-03-30T11:41:51.668Z,4948
2018-03-30T11:42:52.243Z,4908
2018-03-30T11:43:52.982Z,4884
2018-03-30T11:44:52.327Z,4948
2018-03-30T11:45:51.608Z,4916
2018-03-30T11:46:53.354Z,4856
2018-03-30T11:47:53.245Z,4812
2018-03-30T11:48:53.249Z,4820
2018-03-30T11:49:52.930Z,4784
2018-03-30T11:50:52.826Z,4680
2018-03-30T11:51:53.220Z,4528
2018-03-30T11:52:53.191Z,4432
2018-03-30T11:53:53.449Z,4384
2018-03-30T11:54:52.896Z,4328
2018-03-30T11:55:54.390Z,4204
2018-03-30T11:56:53.067Z,4072
2018-03-30T11:57:53.629Z,3996
2018-03-30T11:58:52.755Z,4000
2018-03-30T11:59:53.956Z,4020
2018-03-30T12:00:52.694Z,4024
2018-03-30T12:01:53.246Z,3996
2018-03-30T12:02:52.932Z,3976
2018-03-30T12:03:52.696Z,3976
2018-03-30T12:04:52.937Z,3980
2018-03-30T12:05:53.714Z,3952
2018-03-30T12:06:53.493Z,3896
2018-03-30T12:07:53.249Z,3820
2018-03-30T12:08:53.799Z,3728
2018-03-30T12:09:54.023Z,3696
2018-03-30T12:10:54.284Z,3752
2018-03-30T12:11:54.088Z,3844
2018-03-30T12:12:54.104Z,3900
2018-03-30T12:13:54.142Z,3912
2018-03-30T12:14:53.628Z,3896
2018-03-30T12:15:54.510Z,3840
2018-03-30T12:16:54.272Z,3776
2018-03-30T12:17:54.232Z,3728
2018-03-30T12:18:54.266Z,3704
2018-03-30T12:19:54.568Z,3684
2018-03-30T12:20:55.257Z,3628
2018-03-30T12:21:55.422Z,3560
2018-03-30T12:22:54.945Z,3508
2018-03-30T12:23:54.893Z,3492
2018-03-30T12:24:54.891Z,3460
2018-03-30T12:25:54.938Z,3396
2018-03-30T12:26:55.592Z,3344
2018-03-30T12:27:55.534Z,3336
2018-03-30T12:28:54.938Z,3388
2018-03-30T12:29:55.888Z,3436
2018-03-30T12:30:55.390Z,3492
2018-03-30T12:31:55.762Z,3476
2018-03-30T12:32:55.301Z,3416
2018-03-30T12:33:56.119Z,3360
2018-03-30T12:34:55.915Z,3320
2018-03-30T12:35:55.685Z,3304
2018-03-30T12:36:55.716Z,3264
2018-03-30T12:37:55.994Z,3240
2018-03-30T12:38:55.767Z,3220
2018-03-30T12:39:56.744Z,3188
2018-03-30T12:40:56.211Z,3160
2018-03-30T12:41:56.258Z,3128
2018-03-30T12:42:56.022Z,3104
2018-03-30T12:43:56.323Z,3128
2018-03-30T12:44:56.880Z,3160
2018-03-30T12:45:56.813Z,3156
2018-03-30T12:46:57.116Z,3116
2018-03-30T12:47:56.668Z,3044
2018-03-30T12:48:56.712Z,2972
2018-03-30T12:49:56.862Z,2936
2018-03-30T12:50:57.471Z,2940
2018-03-30T12:51:57.830Z,2956
2018-03-30T12:52:57.307Z,2944
2018-03-30T12:53:57.998Z,2940
2018-03-30T12:54:58.301Z,2940
2018-03-30T12:55:57.470Z,2940
2018-03-30T12:56:58.378Z,2924
2018-03-30T12:57:57.913Z,2872
2018-03-30T12:58:58.111Z,2816
2018-03-30T12:59:58.463Z,2764
2018-03-30T13:00:58.392Z,2740
2018-03-30T13:01:58.456Z,2772
2018-03-30T13:02:58.918Z,2792
2018-03-30T13:03:58.669Z,2792
2018-03-30T13:04:59.196Z,2780
2018-03-30T13:05:59.678Z,2776
2018-03-30T13:06:59.827Z,2784
2018-03-30T13:07:59.908Z,2788
2018-03-30T13:08:59.335Z,2780
2018-03-30T13:10:00.369Z,2760
2018-03-30T13:11:00.259Z,2728
2018-03-30T13:12:00.069Z,2688
2018-03-30T13:13:00.296Z,2664
2018-03-30T13:13:59.780Z,2696
2018-03-30T13:15:00.211Z,2792
2018-03-30T13:16:00.907Z,2928
2018-03-30T13:17:00.830Z,2980
2018-03-30T13:18:00.400Z,2812
2018-03-30T13:19:00.852Z,2624
2018-03-30T13:20:00.384Z,2528
2018-03-30T13:21:00.459Z,2336
2018-03-30T13:22:00.950Z,2400
2018-03-30T13:23:00.757Z,2460
2018-03-30T13:24:00.897Z,2448
2018-03-30T13:25:01.207Z,2420
2018-03-30T13:26:01.186Z,2388
2018-03-30T13:27:01.457Z,2376
2018-03-30T13:28:01.173Z,2372
2018-03-30T13:29:01.579Z,2364
2018-03-30T13:30:02.016Z,2360
2018-03-30T13:31:01.990Z,2364
2018-03-30T13:32:02.050Z,2364
2018-03-30T13:33:02.199Z,2348
2018-03-30T13:34:02.096Z,2332
2018-03-30T13:35:03.022Z,2324
2018-03-30T13:36:02.794Z,2320
2018-03-30T13:37:02.559Z,2304
2018-03-30T13:38:02.953Z,2284
2018-03-30T13:39:03.135Z,2272
2018-03-30T13:40:03.729Z,2268
2018-03-30T13:41:03.422Z,2268
2018-03-30T13:42:03.792Z,2264
2018-03-30T13:43:03.415Z,2268
2018-03-30T13:44:03.631Z,2268
2018-03-30T13:45:04.219Z,2252
2018-03-30T13:46:03.629Z,2248